Time;durP1;ratioP1;P1;durP2;ratioP2;P2;SDS_P1;SDS_P2;PMS_P1;PMS_P2;Temp;Humidity;BMP_temperature;BMP_pressure;BME280_temperature;BME280_humidity;BME280_pressure;Samples;Min_cycle;Max_cycle;Signal;HPM_P1;HPM_P2
2020/12/09 00:00:30;;;;;;;41.05;9.38;;;21.10;24.90;;;;;;5067444;28;19981;-61
2020/12/09 00:02:57;;;;;;;42.53;9.50;;;20.90;26.10;;;;;;5067298;28;20094;-58
2020/12/09 00:05:24;;;;;;;42.80;9.50;;;20.60;25.70;;;;;;5067395;28;20071;-60
2020/12/09 00:07:51;;;;;;;42.63;9.60;;;20.50;26.30;;;;;;5063075;28;20494;-56
2020/12/09 00:10:18;;;;;;;52.05;11.05;;;20.30;27.30;;;;;;5056981;28;20586;-58
2020/12/09 00:12:44;;;;;;;53.10;11.05;;;20.10;27.20;;;;;;5065875;28;20445;-60
2020/12/09 00:15:11;;;;;;;42.83;10.10;;;19.90;27.40;;;;;;5067072;28;20072;-59
2020/12/09 00:17:37;;;;;;;51.63;10.70;;;19.80;27.70;;;;;;5064839;28;20488;-58
2020/12/09 00:20:06;;;;;;;57.25;11.48;;;19.60;27.10;;;;;;5064252;28;20535;-61
2020/12/09 00:22:34;;;;;;;60.58;12.02;;;19.40;26.00;;;;;;5060500;28;20090;-60
2020/12/09 00:25:02;;;;;;;65.03;11.77;;;19.30;27.30;;;;;;5067475;28;20089;-60
2020/12/09 00:27:28;;;;;;;68.20;12.88;;;19.20;26.90;;;;;;5054894;28;20110;-59
2020/12/09 00:29:55;;;;;;;68.97;11.60;;;19.00;26.20;;;;;;5046467;28;20102;-59
2020/12/09 00:32:21;;;;;;;;;;;18.90;26.80;;;;;;5029281;28;20167;-58
2020/12/09 00:34:47;;;;;;;80.38;13.60;;;18.70;26.80;;;;;;5048042;28;19980;-59
2020/12/09 00:37:14;;;;;;;66.07;11.30;;;18.60;27.30;;;;;;5046588;28;20078;-64
2020/12/09 00:39:40;;;;;;;;;;;18.50;27.10;;;;;;5052050;28;20451;-59
2020/12/09 00:42:06;;;;;;;94.50;13.60;;;18.30;28.30;;;;;;5050685;28;19956;-62
2020/12/09 00:44:33;;;;;;;101.60;15.20;;;18.20;27.60;;;;;;5050920;28;20068;-62
2020/12/09 00:47:00;;;;;;;;;;;18.10;28.40;;;;;;5050392;28;20080;-62
2020/12/09 00:49:26;;;;;;;86.68;13.02;;;18.00;28.20;;;;;;5051026;28;19955;-63
2020/12/09 00:51:52;;;;;;;;;;;17.80;29.00;;;;;;5052527;28;20150;-63
2020/12/09 00:54:19;;;;;;;77.70;13.20;;;17.70;29.70;;;;;;5051702;28;19955;-63
2020/12/09 00:56:45;;;;;;;105.90;14.90;;;17.60;29.10;;;;;;5051977;28;20163;-62
2020/12/09 00:59:11;;;;;;;;;;;17.50;29.50;;;;;;5051484;28;20096;-63
2020/12/09 01:01:38;;;;;;;86.18;14.27;;;17.40;29.90;;;;;;5051763;28;19955;-62
2020/12/09 01:04:04;;;;;;;;;;;17.30;29.20;;;;;;5048907;28;20117;-62
2020/12/09 01:06:33;;;;;;;91.18;14.48;;;17.20;30.10;;;;;;5049774;28;19964;-62
2020/12/09 01:09:04;;;;;;;96.45;15.50;;;17.10;31.20;;;;;;5051740;28;20073;-62
2020/12/09 01:11:31;;;;;;;99.50;16.48;;;17.00;30.70;;;;;;5051943;28;20107;-62
2020/12/09 01:13:57;;;;;;;;;;;16.90;31.00;;;;;;5052389;28;20073;-61
2020/12/09 01:16:24;;;;;;;103.32;16.13;;;16.80;31.20;;;;;;5033271;28;19967;-62
2020/12/09 01:18:50;;;;;;;;;;;16.70;31.10;;;;;;5034495;28;20409;-60
2020/12/09 01:21:25;;;;;;;98.25;16.23;;;16.70;31.00;;;;;;5051963;28;20424;-61
2020/12/09 01:23:52;;;;;;;83.95;16.55;;;16.60;30.90;;;;;;5050297;28;20084;-61
2020/12/09 01:26:18;;;;;;;;;;;16.50;31.70;;;;;;5038400;28;20106;-61
2020/12/09 01:28:46;;;;;;;104.80;17.00;;;16.50;32.80;;;;;;5072166;28;20519;-61
2020/12/09 01:31:13;;;;;;;113.25;17.83;;;16.30;31.20;;;;;;5071839;28;20071;-62
2020/12/09 01:33:39;;;;;;;;;;;16.20;30.30;;;;;;5071507;28;20076;-60
2020/12/09 01:36:05;;;;;;;101.90;17.67;;;16.20;32.00;;;;;;5052926;28;19963;-61
2020/12/09 01:38:31;;;;;;;;;;;16.20;31.50;;;;;;5071073;28;20074;-61
2020/12/09 01:40:58;;;;;;;111.47;18.20;;;16.10;31.60;;;;;;5070367;28;20331;-60
2020/12/09 01:43:24;;;;;;;120.13;20.92;;;16.00;29.70;;;;;;5070217;28;20124;-62
2020/12/09 01:45:54;;;;;;;116.80;21.90;;;15.90;29.70;;;;;;5069908;28;20079;-61
2020/12/09 01:48:20;;;;;;;119.53;21.35;;;16.00;26.40;;;;;;5067558;28;20116;-61
2020/12/09 01:50:46;;;;;;;;;;;16.10;25.60;;;;;;5072244;28;20129;-60
2020/12/09 01:53:14;;;;;;;113.72;22.70;;;16.20;25.60;;;;;;5071425;28;19960;-61
2020/12/09 01:55:40;;;;;;;115.68;21.58;;;16.20;27.30;;;;;;5070467;28;20507;-61
2020/12/09 01:58:06;;;;;;;;;;;16.20;26.90;;;;;;5072756;28;20428;-62
2020/12/09 02:00:35;;;;;;;93.57;19.65;;;16.10;26.20;;;;;;5070537;28;19982;-62
2020/12/09 02:03:02;;;;;;;107.95;19.73;;;16.10;26.30;;;;;;5070394;28;20071;-62
2020/12/09 02:05:30;;;;;;;102.00;20.23;;;16.20;25.90;;;;;;5052004;28;20072;-63
2020/12/09 02:07:56;;;;;;;101.00;19.13;;;16.20;26.20;;;;;;5053621;28;20524;-63
2020/12/09 02:10:23;;;;;;;;;;;16.20;26.30;;;;;;5052362;28;20080;-61
2020/12/09 02:12:49;;;;;;;111.03;21.23;;;16.20;27.00;;;;;;5069960;28;19956;-61
2020/12/09 02:15:15;;;;;;;;;;;16.20;27.70;;;;;;5069410;28;20072;-61
2020/12/09 02:17:42;;;;;;;108.63;18.58;;;16.10;27.70;;;;;;5068932;28;20385;-62
2020/12/09 02:20:09;;;;;;;;;;;16.00;28.10;;;;;;5068536;28;20180;-62
2020/12/09 02:22:36;;;;;;;89.63;20.63;;;15.90;27.10;;;;;;5085184;28;20346;-62
2020/12/09 02:25:03;;;;;;;113.13;19.75;;;15.90;28.30;;;;;;5069605;28;20064;-61
2020/12/09 02:27:30;;;;;;;130.35;20.90;;;15.90;28.80;;;;;;5053330;28;20116;-63
2020/12/09 02:29:57;;;;;;;124.15;21.55;;;15.90;29.40;;;;;;5052008;28;20105;-62
2020/12/09 02:32:24;;;;;;;105.47;19.52;;;15.80;29.10;;;;;;5068939;28;20446;-63
2020/12/09 02:34:50;;;;;;;138.77;22.27;;;15.80;29.60;;;;;;5069617;28;20072;-64
2020/12/09 02:37:17;;;;;;;128.38;22.17;;;15.70;28.50;;;;;;5051931;28;20083;-61
2020/12/09 02:39:44;;;;;;;115.22;20.05;;;15.60;28.20;;;;;;5070471;28;20140;-61
2020/12/09 02:42:10;;;;;;;;;;;15.60;28.30;;;;;;5051880;28;20528;-61
2020/12/09 02:44:36;;;;;;;100.15;20.50;;;15.50;28.40;;;;;;5068556;28;20029;-62
2020/12/09 02:47:03;;;;;;;118.90;21.63;;;15.50;28.90;;;;;;5071499;28;20133;-62
2020/12/09 02:49:30;;;;;;;134.43;23.45;;;15.50;29.20;;;;;;5068310;28;20090;-61
2020/12/09 02:51:56;;;;;;;;;;;15.40;30.20;;;;;;5066742;28;20163;-62
2020/12/09 02:54:23;;;;;;;101.20;20.33;;;15.30;29.50;;;;;;5085551;28;20000;-63
2020/12/09 02:56:50;;;;;;;111.35;21.92;;;15.30;29.40;;;;;;5067854;28;20083;-63
2020/12/09 02:59:16;;;;;;;;;;;15.30;29.00;;;;;;5069119;28;20114;-63
2020/12/09 03:01:43;;;;;;;133.60;23.23;;;15.20;29.60;;;;;;5069531;28;19960;-64
2020/12/09 03:04:09;;;;;;;;;;;15.20;29.70;;;;;;5070278;28;20076;-61
2020/12/09 03:06:35;;;;;;;120.20;22.02;;;15.10;30.00;;;;;;5069226;28;20434;-63
2020/12/09 03:09:02;;;;;;;;;;;15.10;29.40;;;;;;5071377;28;20095;-61
2020/12/09 03:11:30;;;;;;;120.82;23.10;;;15.00;29.40;;;;;;5050308;28;19963;-62
2020/12/09 03:13:57;;;;;;;126.43;23.73;;;15.00;29.70;;;;;;5070073;28;20072;-61
2020/12/09 03:16:23;;;;;;;124.30;22.02;;;14.90;28.70;;;;;;5050503;28;20164;-61
2020/12/09 03:18:50;;;;;;;94.78;21.98;;;14.90;30.00;;;;;;5067143;28;20432;-62
2020/12/09 03:21:17;;;;;;;108.82;22.45;;;14.90;30.70;;;;;;5052080;28;20072;-62
2020/12/09 03:23:43;;;;;;;117.13;22.88;;;14.90;31.20;;;;;;5051087;28;20076;-60
2020/12/09 03:26:09;;;;;;;;;;;14.80;30.30;;;;;;5066928;28;20422;-61
2020/12/09 03:28:36;;;;;;;116.63;23.38;;;14.70;30.00;;;;;;5068881;28;20054;-61
2020/12/09 03:31:08;;;;;;;122.20;23.67;;;14.70;30.00;;;;;;5066744;28;20096;-62
2020/12/09 03:33:35;;;;;;;122.93;24.75;;;14.60;30.70;;;;;;5048607;28;20083;-61
2020/12/09 03:36:03;;;;;;;132.85;24.83;;;14.60;29.60;;;;;;5067620;28;20074;-63
2020/12/09 03:38:30;;;;;;;99.90;24.48;;;14.60;29.90;;;;;;5070052;28;20111;-63
2020/12/09 03:40:56;;;;;;;;;;;14.60;29.70;;;;;;5069196;28;20533;-63
2020/12/09 03:43:23;;;;;;;157.50;27.20;;;14.50;29.30;;;;;;5066794;28;19955;-63
2020/12/09 03:45:49;;;;;;;;;;;14.50;30.00;;;;;;5067937;28;20185;-64
2020/12/09 03:48:16;;;;;;;127.97;27.92;;;14.40;29.40;;;;;;5067029;28;19997;-62
2020/12/09 03:50:42;;;;;;;;;;;14.40;30.20;;;;;;5067890;28;20133;-62
2020/12/09 03:53:09;;;;;;;146.95;29.65;;;14.40;30.00;;;;;;5063471;28;19956;-62
2020/12/09 03:55:35;;;;;;;;;;;14.40;31.00;;;;;;5065717;28;20144;-63
2020/12/09 03:58:02;;;;;;;152.88;29.30;;;14.40;31.60;;;;;;5067086;28;20464;-62
2020/12/09 04:00:28;;;;;;;;;;;14.30;30.40;;;;;;5052805;28;20106;-61
2020/12/09 04:02:55;;;;;;;162.77;31.08;;;14.30;30.30;;;;;;5069523;28;19971;-62
2020/12/09 04:05:22;;;;;;;138.55;27.33;;;14.30;31.10;;;;;;5066942;28;20076;-63
2020/12/09 04:07:53;;;;;;;118.13;28.35;;;14.30;32.00;;;;;;5049295;28;20072;-62
2020/12/09 04:10:20;;;;;;;122.90;25.98;;;14.20;31.90;;;;;;5051930;28;20068;-62
2020/12/09 04:12:49;;;;;;;127.97;29.17;;;14.20;33.00;;;;;;5068563;28;20068;-64
2020/12/09 04:15:16;;;;;;;131.55;27.77;;;14.20;32.80;;;;;;5072007;28;20080;-64
2020/12/09 04:17:43;;;;;;;124.97;29.35;;;14.10;32.40;;;;;;5071116;28;20072;-62
2020/12/09 04:20:10;;;;;;;119.35;28.80;;;14.10;34.00;;;;;;5073588;28;20108;-63
2020/12/09 04:22:36;;;;;;;132.77;27.10;;;14.10;34.90;;;;;;5071809;28;20076;-61
2020/12/09 04:25:03;;;;;;;;;;;14.10;34.30;;;;;;5054185;28;20444;-62
2020/12/09 04:27:29;;;;;;;108.13;27.05;;;14.00;34.00;;;;;;5072622;28;20367;-63
2020/12/09 04:29:55;;;;;;;;;;;13.90;34.00;;;;;;5053862;28;20087;-61
2020/12/09 04:32:22;;;;;;;124.43;25.65;;;13.90;34.20;;;;;;5055070;28;20061;-61
2020/12/09 04:34:49;;;;;;;;;;;13.90;33.60;;;;;;5071531;28;20079;-63
2020/12/09 04:37:20;;;;;;;110.45;26.23;;;13.80;33.60;;;;;;5072744;28;19966;-62
2020/12/09 04:39:50;;;;;;;143.57;28.08;;;13.70;34.10;;;;;;5071941;28;20103;-62
2020/12/09 04:42:20;;;;;;;132.45;28.83;;;13.70;34.10;;;;;;5056884;28;20151;-63
2020/12/09 04:44:49;;;;;;;128.80;27.50;;;13.70;33.60;;;;;;5055848;28;20098;-64
2020/12/09 04:47:22;;;;;;;109.32;27.80;;;13.70;33.70;;;;;;5053460;28;20075;-63
2020/12/09 04:49:51;;;;;;;108.22;27.63;;;13.70;33.50;;;;;;5054885;28;20080;-63
2020/12/09 04:52:23;;;;;;;119.93;28.80;;;13.60;33.40;;;;;;5040586;28;20513;-63
2020/12/09 04:54:53;;;;;;;127.78;29.52;;;13.60;33.50;;;;;;5054819;28;20075;-62
2020/12/09 04:57:38;;;;;;;137.73;32.53;;;13.60;33.30;;;;;;5055519;28;20076;-63
2020/12/09 05:00:10;;;;;;;132.68;32.00;;;13.50;34.10;;;;;;5055189;28;20366;-64
2020/12/09 05:02:44;;;;;;;135.07;32.45;;;13.50;33.90;;;;;;5055482;28;20508;-63
2020/12/09 05:05:16;;;;;;;129.25;32.85;;;13.40;34.30;;;;;;5054076;28;20117;-62
2020/12/09 05:07:51;;;;;;;138.05;33.00;;;13.40;34.00;;;;;;5071868;28;20079;-62
2020/12/09 05:10:21;;;;;;;149.70;34.95;;;13.40;34.20;;;;;;5054616;28;20094;-63
2020/12/09 05:12:50;;;;;;;140.23;33.15;;;13.40;33.90;;;;;;5072710;28;20083;-62
2020/12/09 05:15:22;;;;;;;121.78;31.45;;;13.30;34.80;;;;;;5070363;28;20075;-62
2020/12/09 05:18:01;;;;;;;127.43;32.38;;;13.30;35.20;;;;;;5073757;28;20560;-63
2020/12/09 05:20:34;;;;;;;134.82;33.80;;;13.30;35.80;;;;;;5072889;28;20179;-63
2020/12/09 05:23:05;;;;;;;134.48;35.72;;;13.30;36.20;;;;;;5071261;28;20071;-62
2020/12/09 05:25:38;;;;;;;125.95;33.78;;;13.20;35.90;;;;;;5068863;28;20076;-63
2020/12/09 05:28:08;;;;;;;122.28;34.97;;;13.20;35.30;;;;;;5071118;28;20194;-62
2020/12/09 05:30:53;;;;;;;130.32;34.00;;;13.20;35.80;;;;;;5069279;28;20064;-62
2020/12/09 05:33:22;;;;;;;118.53;35.58;;;13.20;36.40;;;;;;5052521;28;20129;-63
2020/12/09 05:36:04;;;;;;;152.40;35.08;;;13.20;36.60;;;;;;5070199;28;20068;-63
2020/12/09 05:38:31;;;;;;;153.93;35.05;;;13.20;37.00;;;;;;5070317;28;20470;-62
2020/12/09 05:40:58;;;;;;;130.48;35.30;;;13.20;37.60;;;;;;5053213;28;20098;-62
2020/12/09 05:43:25;;;;;;;136.00;33.95;;;13.10;37.00;;;;;;5052051;28;20068;-63
2020/12/09 05:45:52;;;;;;;147.27;34.72;;;13.10;38.00;;;;;;5052645;28;20159;-63
2020/12/09 05:48:23;;;;;;;137.55;32.42;;;13.10;37.70;;;;;;5053897;28;20086;-63
2020/12/09 05:50:55;;;;;;;146.43;33.55;;;13.00;37.00;;;;;;5070762;28;20068;-61
2020/12/09 05:53:24;;;;;;;123.40;32.58;;;13.00;37.10;;;;;;5052492;28;20158;-62
2020/12/09 05:55:54;;;;;;;124.13;34.00;;;12.90;38.90;;;;;;5053498;28;20145;-62
2020/12/09 05:58:27;;;;;;;155.73;34.30;;;12.90;38.30;;;;;;5073547;28;20095;-62
2020/12/09 06:01:16;;;;;;;118.40;31.35;;;12.90;37.70;;;;;;5052350;28;20559;-62
2020/12/09 06:04:04;;;;;;;136.05;34.70;;;12.90;38.70;;;;;;5050535;28;20072;-62
2020/12/09 06:06:31;;;;;;;143.80;36.90;;;12.80;38.10;;;;;;5069225;28;20575;-63
2020/12/09 06:09:00;;;;;;;175.38;48.70;;;12.80;37.70;;;;;;5071364;28;20084;-62
2020/12/09 06:11:32;;;;;;;145.13;39.45;;;12.70;39.10;;;;;;5052208;28;20474;-62
2020/12/09 06:14:00;;;;;;;157.50;41.20;;;12.70;38.30;;;;;;5071167;28;20141;-63
2020/12/09 06:16:30;;;;;;;147.07;37.53;;;12.70;38.20;;;;;;5068125;28;20093;-63
2020/12/09 06:18:57;;;;;;;145.80;38.78;;;12.70;39.40;;;;;;5070454;28;20091;-61
2020/12/09 06:21:26;;;;;;;157.77;43.20;;;12.60;39.10;;;;;;5069953;28;20494;-62
2020/12/09 06:23:55;;;;;;;154.23;45.63;;;12.60;38.30;;;;;;5068832;28;20088;-60
2020/12/09 06:26:22;;;;;;;157.32;48.80;;;12.60;38.50;;;;;;5053107;28;20131;-60
2020/12/09 06:28:52;;;;;;;166.35;50.28;;;12.60;39.60;;;;;;5070854;28;20080;-59
2020/12/09 06:31:21;;;;;;;161.98;50.53;;;12.50;39.70;;;;;;5050776;28;20085;-58
2020/12/09 06:33:53;;;;;;;148.07;46.95;;;12.50;39.00;;;;;;5085775;28;20122;-63
2020/12/09 06:36:35;;;;;;;139.35;42.47;;;13.10;57.30;;;;;;5051423;28;20032;-64
2020/12/09 06:39:14;;;;;;;135.48;39.70;;;;;;;;;;5067023;28;20033;-63
2020/12/09 06:42:05;;;;;;;144.75;40.67;;;12.20;57.10;;;;;;5070602;28;20537;-64
2020/12/09 06:44:32;;;;;;;119.35;37.25;;;;;;;;;;5063781;28;20051;-63
2020/12/09 06:47:00;;;;;;;149.10;38.50;;;12.60;54.20;;;;;;5070560;28;20032;-64
2020/12/09 06:49:33;;;;;;;150.80;38.70;;;12.10;57.00;;;;;;5070447;28;20048;-65
2020/12/09 06:52:10;;;;;;;130.30;38.92;;;12.00;61.60;;;;;;5084461;28;20028;-64
2020/12/09 06:54:43;;;;;;;;;;;12.40;39.20;;;;;;5051402;28;20098;-64
2020/12/09 06:57:14;;;;;;;153.40;43.88;;;12.30;38.50;;;;;;5079219;28;19927;-65
2020/12/09 06:59:42;;;;;;;146.82;41.33;;;12.30;38.90;;;;;;5054177;28;20138;-66
2020/12/09 07:02:13;;;;;;;131.45;40.20;;;12.30;38.70;;;;;;5071986;28;20071;-64
2020/12/09 07:04:55;;;;;;;145.80;44.05;;;12.30;39.70;;;;;;5050704;28;20175;-64
2020/12/09 07:07:38;;;;;;;152.63;44.33;;;12.30;40.40;;;;;;5068466;28;20070;-64
2020/12/09 07:10:24;;;;;;;137.23;43.60;;;12.30;40.60;;;;;;5049580;28;20071;-63
2020/12/09 07:13:02;;;;;;;131.43;43.13;;;12.30;40.50;;;;;;5069002;28;20105;-65
2020/12/09 07:15:29;;;;;;;141.07;43.40;;;12.30;39.80;;;;;;5070170;28;20072;-64
2020/12/09 07:17:58;;;;;;;136.15;43.95;;;12.20;41.20;;;;;;5070567;28;20079;-65
2020/12/09 07:20:25;;;;;;;136.30;43.42;;;12.20;40.00;;;;;;5067700;28;20082;-64
2020/12/09 07:22:51;;;;;;;151.02;45.97;;;12.10;40.80;;;;;;5084527;28;20130;-64
2020/12/09 07:25:19;;;;;;;139.32;42.67;;;12.10;40.00;;;;;;5052309;28;20068;-65
2020/12/09 07:27:46;;;;;;;161.85;44.90;;;12.10;39.40;;;;;;5070848;28;20103;-64
2020/12/09 07:30:15;;;;;;;156.73;42.78;;;12.20;39.80;;;;;;5069140;28;20076;-63
2020/12/09 07:32:42;;;;;;;140.13;43.97;;;12.10;39.60;;;;;;5068043;28;20112;-64
2020/12/09 07:35:11;;;;;;;140.57;42.95;;;12.10;40.10;;;;;;5066572;28;20552;-63
2020/12/09 07:37:51;;;;;;;147.27;42.97;;;12.10;39.90;;;;;;5068054;28;20181;-64
2020/12/09 07:40:25;;;;;;;158.02;41.67;;;12.10;40.10;;;;;;5068412;28;20092;-63
2020/12/09 07:43:05;;;;;;;152.15;42.03;;;12.10;40.10;;;;;;5051084;28;20071;-64
2020/12/09 07:45:33;;;;;;;153.73;40.97;;;12.10;39.40;;;;;;5049852;28;20114;-63
2020/12/09 07:48:07;;;;;;;127.80;38.53;;;12.10;39.40;;;;;;5047531;28;20116;-64
2020/12/09 07:50:35;;;;;;;149.77;41.50;;;12.10;39.40;;;;;;5051874;28;20090;-64
2020/12/09 07:53:03;;;;;;;131.77;39.85;;;12.00;40.60;;;;;;5051800;28;20086;-64
2020/12/09 07:55:32;;;;;;;154.68;41.83;;;12.00;40.50;;;;;;5050569;28;20159;-63
2020/12/09 07:58:14;;;;;;;151.73;40.33;;;12.00;40.50;;;;;;5051447;28;20074;-64
2020/12/09 08:00:50;;;;;;;161.00;41.67;;;12.00;40.50;;;;;;5050157;28;20156;-64
2020/12/09 08:03:21;;;;;;;138.10;39.50;;;12.00;40.30;;;;;;5069670;28;20094;-64
2020/12/09 08:05:48;;;;;;;138.40;40.75;;;12.00;51.00;;;;;;5054329;28;20124;-63
2020/12/09 08:08:17;;;;;;;138.95;40.92;;;12.00;41.00;;;;;;5034374;28;20159;-64
2020/12/09 08:10:45;;;;;;;152.73;43.10;;;11.80;51.10;;;;;;5035453;28;20045;-64
2020/12/09 08:13:21;;;;;;;131.32;43.28;;;11.80;53.10;;;;;;5068300;28;20064;-64
2020/12/09 08:16:09;;;;;;;142.80;40.92;;;12.00;64.30;;;;;;5050783;28;20402;-64
2020/12/09 08:18:36;;;;;;;139.55;41.60;;;12.10;40.90;;;;;;5081610;28;20038;-63
2020/12/09 08:21:03;;;;;;;141.00;39.05;;;11.40;57.50;;;;;;5034805;28;20097;-64
2020/12/09 08:23:40;;;;;;;134.48;39.85;;;11.80;41.30;;;;;;5067693;28;20054;-64
2020/12/09 08:26:08;;;;;;;142.23;39.92;;;11.70;39.60;;;;;;5049665;28;20024;-65
2020/12/09 08:28:34;;;;;;;145.45;42.35;;;11.70;40.20;;;;;;5068524;28;20116;-66
2020/12/09 08:31:13;;;;;;;125.03;38.17;;;11.20;66.40;;;;;;5034935;28;20432;-64
2020/12/09 08:33:40;;;;;;;135.80;39.58;;;11.60;41.70;;;;;;5066520;28;20492;-64
2020/12/09 08:36:14;;;;;;;135.95;39.53;;;11.50;57.30;;;;;;5068128;28;20089;-63
2020/12/09 08:38:41;;;;;;;138.77;40.15;;;11.60;41.10;;;;;;5066227;28;20191;-63
2020/12/09 08:41:11;;;;;;;125.28;37.55;;;11.80;54.20;;;;;;5068027;28;20105;-63
2020/12/09 08:43:40;;;;;;;137.15;37.20;;;12.30;59.90;;;;;;5050574;28;20425;-63
2020/12/09 08:46:07;;;;;;;124.32;36.67;;;;;;;;;;5067267;28;20158;-63
2020/12/09 08:48:40;;;;;;;130.82;39.33;;;;;;;;;;5066988;28;20074;-63
2020/12/09 08:51:07;;;;;;;142.68;37.72;;;11.30;68.70;;;;;;5067495;28;20154;-63
2020/12/09 08:53:34;;;;;;;128.30;37.35;;;11.70;50.10;;;;;;5049854;28;20029;-64
2020/12/09 08:56:01;;;;;;;130.23;35.10;;;11.30;65.40;;;;;;5068242;28;20075;-63
2020/12/09 08:58:28;;;;;;;99.28;33.22;;;;;;;;;;5050399;28;20420;-64
2020/12/09 09:00:55;;;;;;;127.93;33.58;;;11.70;55.70;;;;;;5071120;28;20127;-63
2020/12/09 09:03:24;;;;;;;;;;;;;;;;;;5071758;28;20027;-63
2020/12/09 09:05:58;;;;;;;94.28;30.63;;;12.10;55.40;;;;;;5072907;28;19909;-63
2020/12/09 09:08:24;;;;;;;100.00;32.05;;;12.40;48.20;;;;;;5087102;28;20438;-62
2020/12/09 09:10:52;;;;;;;;;;;;;;;;;;5072656;28;20033;-63
2020/12/09 09:13:18;;;;;;;112.95;30.13;;;11.50;42.50;;;;;;5071306;28;19954;-62
2020/12/09 09:15:45;;;;;;;109.72;30.75;;;11.50;70.80;;;;;;5071450;28;20021;-62
2020/12/09 09:18:11;;;;;;;;;;;11.60;40.00;;;;;;5071540;28;20046;-60
2020/12/09 09:20:37;;;;;;;94.82;30.80;;;11.50;43.80;;;;;;5070150;28;19961;-62
2020/12/09 09:23:06;;;;;;;99.55;31.40;;;11.40;39.90;;;;;;5071655;28;20544;-62
2020/12/09 09:25:34;;;;;;;108.15;34.47;;;11.40;40.30;;;;;;5070983;28;20132;-61
2020/12/09 09:28:00;;;;;;;116.68;34.10;;;11.40;40.20;;;;;;5072249;28;20127;-63
2020/12/09 09:30:27;;;;;;;98.28;33.08;;;11.30;41.20;;;;;;5053267;28;20082;-63
2020/12/09 09:32:53;;;;;;;105.80;33.75;;;11.40;41.60;;;;;;5070390;28;20077;-62
2020/12/09 09:35:20;;;;;;;91.68;31.15;;;11.30;41.10;;;;;;5071541;28;20071;-61
2020/12/09 09:37:48;;;;;;;95.05;32.45;;;11.30;41.40;;;;;;5069854;28;20068;-61
2020/12/09 09:40:14;;;;;;;97.55;32.05;;;11.40;42.60;;;;;;5051397;28;20114;-61
2020/12/09 09:42:41;;;;;;;98.72;32.03;;;11.30;42.30;;;;;;5053337;28;20077;-62
2020/12/09 09:45:11;;;;;;;85.72;28.10;;;11.20;41.40;;;;;;5071564;28;20095;-62
2020/12/09 09:47:37;;;;;;;85.57;29.27;;;11.20;41.50;;;;;;5055413;28;20082;-62
2020/12/09 09:50:06;;;;;;;82.25;27.00;;;11.20;41.50;;;;;;5084828;28;20067;-63
2020/12/09 09:52:34;;;;;;;80.80;25.98;;;11.30;42.00;;;;;;5070397;28;20542;-61
2020/12/09 09:55:01;;;;;;;73.53;25.55;;;11.30;41.50;;;;;;5071475;28;20075;-62
2020/12/09 09:57:27;;;;;;;;;;;11.30;41.70;;;;;;5071910;28;20093;-63
2020/12/09 09:59:53;;;;;;;87.43;25.80;;;11.30;42.50;;;;;;5069918;28;19975;-63
2020/12/09 10:02:20;;;;;;;85.50;25.27;;;11.30;43.10;;;;;;5071181;28;20074;-63
2020/12/09 10:04:46;;;;;;;67.75;24.75;;;11.30;42.60;;;;;;5070132;28;20100;-63
2020/12/09 10:07:12;;;;;;;;;;;11.20;41.50;;;;;;5053668;28;20100;-61
2020/12/09 10:09:39;;;;;;;69.85;23.15;;;11.20;41.80;;;;;;5069445;28;21366;-62
2020/12/09 10:12:05;;;;;;;78.60;25.23;;;11.20;42.00;;;;;;5067622;28;20063;-62
2020/12/09 10:14:32;;;;;;;75.78;25.02;;;11.20;41.50;;;;;;5068947;28;20078;-63
2020/12/09 10:17:00;;;;;;;86.50;25.05;;;11.20;42.30;;;;;;5069433;28;20066;-64
2020/12/09 10:19:26;;;;;;;78.85;24.77;;;11.20;41.60;;;;;;5070447;28;20451;-63
2020/12/09 10:21:53;;;;;;;82.45;27.02;;;11.10;41.30;;;;;;5070543;28;20205;-63
2020/12/09 10:24:19;;;;;;;;;;;11.10;41.40;;;;;;5068253;28;20073;-63
2020/12/09 10:26:46;;;;;;;95.93;27.23;;;11.10;41.40;;;;;;5051589;28;20026;-61
2020/12/09 10:29:12;;;;;;;79.63;26.08;;;11.00;41.80;;;;;;5072850;28;20147;-62
2020/12/09 10:31:44;;;;;;;73.00;24.90;;;11.00;41.90;;;;;;5068143;28;20074;-62
2020/12/09 10:34:13;;;;;;;74.85;26.23;;;11.00;42.20;;;;;;5068974;28;20086;-63
2020/12/09 10:36:44;;;;;;;79.13;26.23;;;10.90;42.30;;;;;;5073373;28;20109;-62
2020/12/09 10:39:11;;;;;;;82.35;25.50;;;10.90;42.50;;;;;;5070217;28;20083;-63
2020/12/09 10:41:41;;;;;;;84.70;26.63;;;10.80;42.60;;;;;;5069278;28;20062;-63
2020/12/09 10:44:08;;;;;;;87.40;28.10;;;10.80;42.70;;;;;;5050471;28;20170;-61
2020/12/09 10:46:36;;;;;;;79.95;26.52;;;10.80;43.10;;;;;;5066876;28;20078;-63
2020/12/09 10:49:05;;;;;;;85.72;28.05;;;10.80;42.80;;;;;;5068555;28;20071;-62
2020/12/09 10:51:32;;;;;;;94.18;28.50;;;10.80;42.90;;;;;;5067128;28;20079;-61
2020/12/09 10:53:59;;;;;;;81.53;28.17;;;10.70;43.50;;;;;;5060640;28;20144;-63
2020/12/09 10:56:31;;;;;;;94.53;27.00;;;10.70;43.70;;;;;;5069364;28;20515;-63
2020/12/09 10:58:59;;;;;;;79.10;28.38;;;10.70;43.50;;;;;;5067312;28;20125;-63
2020/12/09 11:01:26;;;;;;;88.72;29.38;;;10.70;43.60;;;;;;5066883;28;20430;-62
2020/12/09 11:03:53;;;;;;;80.35;27.30;;;10.70;43.70;;;;;;5067204;28;20154;-63
2020/12/09 11:06:37;;;;;;;78.55;29.40;;;10.70;43.90;;;;;;5067629;28;20075;-61
2020/12/09 11:09:07;;;;;;;77.80;28.65;;;10.70;43.90;;;;;;5067994;28;20187;-62
2020/12/09 11:11:36;;;;;;;85.13;28.80;;;10.60;43.90;;;;;;5069420;28;20070;-63
2020/12/09 11:14:03;;;;;;;68.68;28.30;;;10.60;44.30;;;;;;5068235;28;20102;-63
2020/12/09 11:16:30;;;;;;;82.45;28.20;;;10.60;44.10;;;;;;5050321;28;20075;-62
2020/12/09 11:18:56;;;;;;;81.70;26.92;;;10.50;43.90;;;;;;5065991;28;20153;-62
2020/12/09 11:21:24;;;;;;;84.97;27.92;;;10.60;45.00;;;;;;5058709;28;20078;-63
2020/12/09 11:23:52;;;;;;;75.72;28.75;;;10.50;45.20;;;;;;5065633;28;20076;-62
2020/12/09 11:26:20;;;;;;;78.97;26.80;;;10.50;44.70;;;;;;5051553;28;20186;-62
2020/12/09 11:28:48;;;;;;;66.38;25.33;;;10.50;44.30;;;;;;5068684;28;20097;-62
2020/12/09 11:31:18;;;;;;;77.72;27.38;;;10.40;44.20;;;;;;5068408;28;20069;-63
2020/12/09 11:33:45;;;;;;;65.82;25.83;;;10.40;44.40;;;;;;5070034;28;20070;-64
2020/12/09 11:36:11;;;;;;;;;;;10.40;44.70;;;;;;5068849;28;20105;-63
2020/12/09 11:38:37;;;;;;;74.68;25.48;;;10.40;44.90;;;;;;5069399;28;19962;-63
2020/12/09 11:41:03;;;;;;;;;;;10.40;44.50;;;;;;5068743;28;20107;-62
2020/12/09 11:43:33;;;;;;;76.22;26.45;;;10.40;44.40;;;;;;5068257;28;19955;-63
2020/12/09 11:45:59;;;;;;;82.88;24.40;;;10.30;44.10;;;;;;5068134;28;20067;-63
2020/12/09 11:48:26;;;;;;;61.45;23.85;;;10.30;44.70;;;;;;5068850;28;20531;-62
2020/12/09 11:50:53;;;;;;;70.55;23.75;;;10.30;45.00;;;;;;5068125;28;20110;-62
2020/12/09 11:53:19;;;;;;;73.25;25.13;;;10.30;44.90;;;;;;5068749;28;20527;-62
2020/12/09 11:55:46;;;;;;;57.22;22.38;;;10.20;44.90;;;;;;5069738;28;20124;-62
2020/12/09 11:58:13;;;;;;;73.25;25.25;;;10.30;45.30;;;;;;5068421;28;20074;-62
2020/12/09 12:00:40;;;;;;;66.35;23.00;;;10.30;45.60;;;;;;5068709;28;20102;-62
2020/12/09 12:03:06;;;;;;;65.13;24.00;;;10.20;45.50;;;;;;5070467;28;20555;-62
2020/12/09 12:05:34;;;;;;;;;;;10.20;46.10;;;;;;5070231;28;20079;-62
2020/12/09 12:08:04;;;;;;;;;;;10.20;45.90;;;;;;5068016;28;19962;-63
2020/12/09 12:10:32;;;;;;;70.50;25.55;;;10.10;46.10;;;;;;5065766;28;20005;-63
2020/12/09 12:12:59;;;;;;;77.60;25.92;;;10.00;46.20;;;;;;5067986;28;20071;-63
2020/12/09 12:15:26;;;;;;;70.82;26.17;;;10.00;46.40;;;;;;5049802;28;20067;-63
2020/12/09 12:17:52;;;;;;;;;;;10.00;46.70;;;;;;5069079;28;20433;-62
2020/12/09 12:20:18;;;;;;;73.78;27.27;;;10.00;46.70;;;;;;5066688;28;19979;-61
2020/12/09 12:22:45;;;;;;;80.40;28.23;;;9.90;46.60;;;;;;5067809;28;20064;-63
2020/12/09 12:25:11;;;;;;;91.88;29.63;;;9.90;46.40;;;;;;5070112;28;20079;-62
2020/12/09 12:27:37;;;;;;;;;;;9.90;45.70;;;;;;5068094;28;20598;-62
2020/12/09 12:30:04;;;;;;;83.10;28.55;;;9.90;45.60;;;;;;5064906;28;20430;-61
2020/12/09 12:32:31;;;;;;;87.88;29.98;;;9.90;46.10;;;;;;5050634;28;20072;-62
2020/12/09 12:34:57;;;;;;;;;;;9.80;45.10;;;;;;5070820;28;20103;-64
2020/12/09 12:37:25;;;;;;;90.78;28.67;;;9.70;44.40;;;;;;5066156;28;19954;-63
2020/12/09 12:39:51;;;;;;;81.80;26.73;;;9.80;45.00;;;;;;5053097;28;20129;-63
2020/12/09 12:42:18;;;;;;;;;;;9.90;45.10;;;;;;5071075;28;20067;-62
2020/12/09 12:44:45;;;;;;;100.97;28.47;;;9.90;45.20;;;;;;5052249;28;19978;-62